Time;durP1;ratioP1;P1;durP2;ratioP2;P2;SDS_P1;SDS_P2;PMS_P1;PMS_P2;Temp;Humidity;BMP_temperature;BMP_pressure;BME280_temperature;BME280_humidity;BME280_pressure;Samples;Min_cycle;Max_cycle;Signal;HPM_P1;HPM_P2
2023/09/21 00:00:50;;;;;;;3.07;2.60;;;;;;;17.21;96.49;155784.16;4968623;28;20493;-84
2023/09/21 00:03:17;;;;;;;3.00;2.67;;;;;;;17.19;96.59;155777.66;4951011;28;20464;-84
2023/09/21 00:05:47;;;;;;;3.37;3.00;;;;;;;17.15;95.86;155768.59;4959135;28;20542;-84
2023/09/21 00:08:14;;;;;;;2.60;2.30;;;;;;;17.12;95.84;155760.78;4970656;28;20512;-84
2023/09/21 00:10:41;;;;;;;2.93;2.50;;;;;;;17.11;96.64;155758.16;4936489;28;20989;-84
2023/09/21 00:13:09;;;;;;;2.70;2.33;;;;;;;17.11;97.30;155758.16;4947665;28;20930;-84
2023/09/21 00:15:35;;;;;;;3.60;2.70;;;;;;;17.08;97.82;155749.06;4951473;28;20462;-84
2023/09/21 00:18:05;;;;;;;2.87;2.50;;;;;;;17.01;96.06;155732.13;4968742;28;20458;-84
2023/09/21 00:20:36;;;;;;;2.67;2.43;;;;;;;17.02;97.08;155736.00;4969125;28;20588;-84
2023/09/21 00:23:06;;;;;;;3.10;2.80;;;;;;;17.02;98.05;155734.75;4960176;28;20493;-84
2023/09/21 00:25:33;;;;;;;4.13;3.10;;;;;;;17.03;97.83;155738.63;4940001;28;21002;-84
2023/09/21 00:27:59;;;;;;;2.60;2.40;;;;;;;17.00;97.77;155729.50;4948948;28;20454;-84
2023/09/21 00:30:27;;;;;;;3.10;2.40;;;;;;;16.98;96.46;155725.63;4934339;28;20443;-84
2023/09/21 00:32:54;;;;;;;3.07;2.63;;;;;;;17.01;96.88;155733.44;4950268;28;20973;-84
2023/09/21 00:35:23;;;;;;;3.80;3.40;;;;;;;16.99;97.09;155728.25;4935843;28;20531;-84
2023/09/21 00:37:50;;;;;;;3.20;2.70;;;;;;;16.99;97.67;155728.25;4944848;28;21017;-84
2023/09/21 00:40:21;;;;;;;3.40;2.47;;;;;;;16.96;97.35;155719.13;4950103;28;20578;-85
2023/09/21 00:42:48;;;;;;;2.87;2.60;;;;;;;16.94;97.09;155715.19;4959540;28;20986;-84
2023/09/21 00:45:15;;;;;;;2.40;2.20;;;;;;;16.95;97.71;155717.81;4951900;28;20467;-85
2023/09/21 00:47:47;;;;;;;2.50;2.30;;;;;;;16.94;96.96;155713.94;4951414;28;20996;-85
2023/09/21 00:50:13;;;;;;;3.20;2.90;;;;;;;16.95;97.25;155716.50;4948114;28;20462;-85
2023/09/21 00:52:41;;;;;;;3.63;3.00;;;;;;;16.95;96.79;155717.81;4965169;28;20478;-86
2023/09/21 00:55:09;;;;;;;2.93;2.53;;;;;;;16.96;96.82;155719.13;4953232;28;20529;-85
2023/09/21 00:57:36;;;;;;;3.60;2.90;;;;;;;16.95;97.85;155716.50;4936460;28;20485;-85
2023/09/21 01:00:10;;;;;;;3.33;2.67;;;;;;;16.93;98.02;155712.63;4945162;28;20590;-85
2023/09/21 01:02:37;;;;;;;2.60;2.40;;;;;;;16.90;97.66;155704.81;4951899;28;20482;-85
2023/09/21 01:05:08;;;;;;;3.60;3.03;;;;;;;16.87;97.31;155697.00;4965691;28;20463;-84
2023/09/21 01:07:36;;;;;;;3.10;2.40;;;;;;;16.88;98.03;155698.31;4949174;28;20574;-85
2023/09/21 01:10:06;;;;;;;2.90;2.60;;;;;;;16.90;98.24;155703.50;4957442;28;20964;-85
2023/09/21 01:12:37;;;;;;;2.80;2.30;;;;;;;16.92;97.86;155708.69;4936768;28;20546;-85
2023/09/21 01:15:06;;;;;;;3.40;2.43;;;;;;;16.92;97.69;155708.69;4948702;28;20450;-85
2023/09/21 01:17:32;;;;;;;2.80;2.50;;;;;;;16.94;97.02;155713.94;4955114;28;21200;-85
2023/09/21 01:20:11;;;;;;;2.53;2.33;;;;;;;16.94;97.21;155713.94;4950558;28;20633;-85
2023/09/21 01:22:40;;;;;;;3.73;2.60;;;;;;;16.96;97.40;155720.44;4952860;28;20792;-85
2023/09/21 01:25:08;;;;;;;4.83;2.70;;;;;;;16.95;97.24;155716.50;4952123;28;20462;-84
2023/09/21 01:27:37;;;;;;;3.67;2.37;;;;;;;16.93;96.30;155711.31;4945895;28;20988;-85
2023/09/21 01:30:04;;;;;;;3.20;2.60;;;;;;;16.91;96.56;155706.13;4952205;28;20430;-85
2023/09/21 01:32:31;;;;;;;2.97;2.67;;;;;;;16.93;95.38;155711.31;4970211;28;20473;-85
2023/09/21 01:34:57;;;;;;;3.77;2.80;;;;;;;16.94;96.12;155715.19;4958751;28;20462;-85
2023/09/21 01:37:26;;;;;;;3.80;2.77;;;;;;;16.95;96.08;155717.81;4937385;28;20463;-85
2023/09/21 01:39:54;;;;;;;4.43;2.90;;;;;;;16.94;95.25;155713.94;4944041;28;21066;-85
2023/09/21 01:42:23;;;;;;;2.97;2.57;;;;;;;16.97;95.66;155721.75;4951702;28;20450;-85
2023/09/21 01:44:50;;;;;;;2.83;2.53;;;;;;;16.98;95.45;155725.63;4951691;28;20470;-85
2023/09/21 01:47:17;;;;;;;3.80;2.47;;;;;;;16.97;95.61;155723.00;4953679;28;20441;-85
2023/09/21 01:49:45;;;;;;;4.20;2.93;;;;;;;16.97;96.70;155723.00;4952182;28;20457;-85
2023/09/21 01:52:11;;;;;;;3.13;2.73;;;;;;;16.96;95.64;155720.44;4952637;28;20490;-85
2023/09/21 01:54:38;;;;;;;2.83;2.53;;;;;;;16.95;96.70;155717.81;4951596;28;20546;-85
2023/09/21 01:57:07;;;;;;;3.00;2.60;;;;;;;16.96;97.56;155720.44;4937701;28;20454;-85
2023/09/21 01:59:36;;;;;;;3.57;2.80;;;;;;;16.95;96.58;155717.81;4950923;28;20847;-85
2023/09/21 02:02:03;;;;;;;2.40;2.20;;;;;;;16.97;96.76;155723.00;4935899;28;20533;-85
2023/09/21 02:04:30;;;;;;;3.33;3.00;;;;;;;16.98;97.50;155724.31;4967551;28;20553;-85
2023/09/21 02:06:57;;;;;;;4.13;2.93;;;;;;;16.95;97.03;155717.81;4928181;28;21024;-85
2023/09/21 02:09:27;;;;;;;3.97;2.90;;;;;;;16.96;95.95;155720.44;4968959;28;20462;-85
2023/09/21 02:11:54;;;;;;;3.23;2.37;;;;;;;16.97;96.41;155723.00;4947941;28;20455;-85
2023/09/21 02:14:20;;;;;;;3.00;2.17;;;;;;;16.95;95.95;155717.81;4951120;28;20471;-85
2023/09/21 02:16:48;;;;;;;3.13;2.30;;;;;;;16.97;96.43;155721.75;4941908;29;21204;-86
2023/09/21 02:19:17;;;;;;;2.73;2.47;;;;;;;16.95;95.81;155717.81;4932459;29;20850;-85
2023/09/21 02:21:45;;;;;;;3.20;2.90;;;;;;;16.97;96.20;155721.75;4943827;28;21008;-85
2023/09/21 02:24:12;;;;;;;2.47;2.17;;;;;;;16.93;96.13;155712.63;4952364;28;20442;-84
2023/09/21 02:26:38;;;;;;;3.80;3.03;;;;;;;16.93;97.73;155712.63;4947713;29;20462;-85
2023/09/21 02:29:06;;;;;;;6.83;5.20;;;;;;;16.90;96.70;155703.50;4933793;28;20465;-85
2023/09/21 02:31:37;;;;;;;3.10;2.77;;;;;;;16.88;96.21;155699.63;4933953;28;20549;-85
2023/09/21 02:34:05;;;;;;;3.10;2.80;;;;;;;16.89;97.54;155702.19;4954905;28;20465;-85
2023/09/21 02:36:32;;;;;;;3.30;3.00;;;;;;;16.87;97.55;155695.69;4971081;28;20454;-85
2023/09/21 02:38:59;;;;;;;3.87;2.90;;;;;;;16.83;97.58;155686.59;4951570;28;21024;-85
2023/09/21 02:41:26;;;;;;;3.27;2.97;;;;;;;16.82;97.29;155684.00;4956171;28;20549;-85
2023/09/21 02:43:53;;;;;;;3.77;3.00;;;;;;;16.79;96.14;155676.19;4934619;28;20837;-85
2023/09/21 02:46:21;;;;;;;3.67;2.67;;;;;;;16.81;95.68;155681.38;4934773;28;20462;-85
2023/09/21 02:48:48;;;;;;;3.67;2.30;;;;;;;16.81;96.28;155680.09;4932273;29;21057;-86
2023/09/21 02:51:16;;;;;;;3.13;2.53;;;;;;;16.81;96.33;155680.09;4958552;28;20442;-85
2023/09/21 02:53:44;;;;;;;2.97;2.40;;;;;;;16.81;96.88;155681.38;4953662;28;20612;-85
2023/09/21 02:56:11;;;;;;;3.10;2.70;;;;;;;16.81;98.04;155681.38;4938443;28;20453;-85
2023/09/21 02:58:39;;;;;;;3.00;2.50;;;;;;;16.81;98.03;155680.09;4933676;28;20821;-85
2023/09/21 03:01:05;;;;;;;3.40;3.10;;;;;;;16.77;97.48;155670.97;4955452;28;20518;-85
2023/09/21 03:03:33;;;;;;;2.87;2.50;;;;;;;16.75;97.87;155665.78;4970939;28;20553;-85
2023/09/21 03:05:59;;;;;;;3.73;3.00;;;;;;;16.73;97.33;155659.28;4974775;28;20549;-85
2023/09/21 03:08:28;;;;;;;3.30;2.30;;;;;;;16.72;97.25;155657.97;4970024;28;20561;-85
2023/09/21 03:10:57;;;;;;;3.17;2.73;;;;;;;16.75;98.33;155665.78;4954888;28;20435;-85
2023/09/21 03:13:24;;;;;;;3.43;2.57;;;;;;;16.72;98.69;155657.97;4954615;28;20451;-85
2023/09/21 03:15:53;;;;;;;3.33;3.03;;;;;;;16.71;98.35;155655.34;4948812;28;20451;-85
2023/09/21 03:18:20;;;;;;;4.00;3.13;;;;;;;16.71;99.52;155655.34;4968322;28;20481;-85
2023/09/21 03:20:51;;;;;;;3.93;3.20;;;;;;;16.70;100.00;155652.78;4953746;28;20484;-85
2023/09/21 03:23:18;;;;;;;2.90;2.50;;;;;;;16.67;100.00;155644.97;4970452;28;20461;-85
2023/09/21 03:25:49;;;;;;;3.40;3.10;;;;;;;16.69;100.00;155650.16;4954986;28;20450;-85
2023/09/21 03:28:17;;;;;;;3.50;3.13;;;;;;;16.68;100.00;155647.53;4975173;28;20545;-85
2023/09/21 03:30:45;;;;;;;3.27;2.97;;;;;;;16.68;100.00;155646.28;4991018;28;20540;-85
2023/09/21 03:33:13;;;;;;;4.03;3.37;;;;;;;16.67;100.00;155644.97;4965099;28;20466;-85
2023/09/21 03:35:42;;;;;;;4.17;3.77;;;;;;;16.69;100.00;155648.84;4982456;28;20459;-85
2023/09/21 03:38:12;;;;;;;4.20;3.70;;;;;;;16.65;100.00;155638.47;4969834;28;20454;-85
2023/09/21 03:40:39;;;;;;;3.43;3.03;;;;;;;16.60;100.00;155626.72;4969083;28;20517;-86
2023/09/21 03:43:10;;;;;;;4.17;3.23;;;;;;;16.62;100.00;155630.66;4965726;28;20481;-86
2023/09/21 03:45:38;;;;;;;4.67;3.17;;;;;;;16.62;100.00;155631.97;4976634;28;20446;-86
2023/09/21 03:48:08;;;;;;;3.83;3.40;;;;;;;16.65;100.00;155638.47;4952415;28;20484;-85
2023/09/21 03:50:36;;;;;;;5.40;4.30;;;;;;;16.66;100.00;155642.34;4953849;28;21006;-85
2023/09/21 03:53:04;;;;;;;3.63;3.33;;;;;;;16.66;100.00;155642.34;4964945;28;20456;-85
2023/09/21 03:55:32;;;;;;;3.40;2.83;;;;;;;16.67;100.00;155644.97;4948699;28;20537;-86
2023/09/21 03:57:59;;;;;;;3.27;2.97;;;;;;;16.65;100.00;155639.78;4972195;28;20458;-86
2023/09/21 04:00:29;;;;;;;3.80;3.13;;;;;;;16.66;100.00;155642.34;4977018;28;20532;-85
2023/09/21 04:02:58;;;;;;;4.20;3.80;;;;;;;16.65;100.00;155638.47;4978533;28;20489;-85
2023/09/21 04:05:26;;;;;;;3.90;3.53;;;;;;;16.65;100.00;155638.47;4938783;28;20533;-85
2023/09/21 04:07:53;;;;;;;4.07;3.53;;;;;;;16.65;100.00;155639.78;4954665;28;20537;-85
2023/09/21 04:10:20;;;;;;;3.30;3.00;;;;;;;16.67;100.00;155644.97;4938148;28;20497;-85
2023/09/21 04:12:54;;;;;;;4.07;3.00;;;;;;;16.66;100.00;155642.34;4939398;29;20475;-85
2023/09/21 04:15:21;;;;;;;4.07;3.10;;;;;;;16.67;100.00;155643.66;4965318;28;20521;-85
2023/09/21 04:17:49;;;;;;;3.87;3.33;;;;;;;16.69;100.00;155650.16;4970315;28;20556;-85
2023/09/21 04:20:18;;;;;;;3.50;3.20;;;;;;;16.71;100.00;155655.34;4927672;28;20450;-85
2023/09/21 04:22:46;;;;;;;5.33;3.47;;;;;;;16.70;100.00;155651.47;4954425;28;20446;-86
2023/09/21 04:25:16;;;;;;;6.70;2.93;;;;;;;16.71;100.00;155654.03;4938019;28;20431;-85
2023/09/21 04:27:44;;;;;;;3.00;2.53;;;;;;;16.72;100.00;155656.66;4935688;28;20461;-83
2023/09/21 04:30:14;;;;;;;3.10;2.80;;;;;;;16.75;100.00;155665.78;4947644;28;20466;-82
2023/09/21 04:32:41;;;;;;;3.80;3.20;;;;;;;16.77;100.00;155670.97;4942876;29;20946;-82
2023/09/21 04:35:10;;;;;;;3.77;2.80;;;;;;;16.76;100.00;155667.09;4939033;28;20446;-82
2023/09/21 04:37:38;;;;;;;3.90;3.53;;;;;;;16.75;100.00;155665.78;4931817;29;20495;-82
2023/09/21 04:40:08;;;;;;;3.80;2.87;;;;;;;16.77;100.00;155669.66;4950112;28;20977;-82
2023/09/21 04:42:35;;;;;;;2.63;2.40;;;;;;;16.79;100.00;155674.88;4936375;28;20486;-82
2023/09/21 04:45:09;;;;;;;3.80;3.40;;;;;;;16.80;100.00;155678.78;4935584;28;20542;-81
2023/09/21 04:47:36;;;;;;;3.57;3.27;;;;;;;16.82;100.00;155684.00;4934018;28;21044;-81
2023/09/21 04:50:03;;;;;;;2.90;2.60;;;;;;;16.80;100.00;155677.47;4968354;28;20467;-82
2023/09/21 04:52:33;;;;;;;3.70;3.30;;;;;;;16.80;100.00;155678.78;4948851;29;20531;-81
2023/09/21 04:55:00;;;;;;;3.17;2.80;;;;;;;16.78;100.00;155673.59;4926399;28;20498;-82
2023/09/21 04:57:28;;;;;;;3.37;3.07;;;;;;;16.77;100.00;155670.97;4952589;28;20971;-81
2023/09/21 04:59:55;;;;;;;3.33;2.70;;;;;;;16.77;100.00;155670.97;4956356;28;20961;-81
2023/09/21 05:02:22;;;;;;;4.63;3.40;;;;;;;16.80;100.00;155677.47;4952547;28;21009;-81
2023/09/21 05:04:50;;;;;;;5.03;3.30;;;;;;;16.82;100.00;155684.00;4933378;28;20458;-81
2023/09/21 05:07:17;;;;;;;6.23;3.20;;;;;;;16.82;100.00;155682.69;4921333;28;20457;-82
2023/09/21 05:09:46;;;;;;;3.80;2.63;;;;;;;16.83;100.00;155686.59;4908648;28;20537;-81
2023/09/21 05:12:12;;;;;;;3.80;3.47;;;;;;;16.87;100.00;155697.00;4907809;28;20458;-81
2023/09/21 05:14:40;;;;;;;4.17;3.30;;;;;;;16.88;100.00;155699.63;4931273;28;20560;-81
2023/09/21 05:17:06;;;;;;;3.53;3.23;;;;;;;16.90;100.00;155703.50;4936517;28;20450;-82
2023/09/21 05:19:33;;;;;;;3.40;3.10;;;;;;;16.90;100.00;155704.81;4954752;28;20473;-81
2023/09/21 05:22:00;;;;;;;4.10;2.90;;;;;;;16.92;100.00;155708.69;4921667;28;20561;-83
2023/09/21 05:24:27;;;;;;;3.60;3.30;;;;;;;16.91;100.00;155707.44;4939294;28;20460;-81
2023/09/21 05:26:55;;;;;;;4.20;3.30;;;;;;;16.93;100.00;155711.31;4954450;28;20815;-81
2023/09/21 05:29:21;;;;;;;2.97;2.67;;;;;;;16.95;100.00;155716.50;4942955;28;20487;-81
2023/09/21 05:31:48;;;;;;;3.40;3.10;;;;;;;16.94;100.00;155715.19;4951416;28;20458;-81
2023/09/21 05:34:15;;;;;;;3.87;3.37;;;;;;;16.98;100.00;155725.63;4923153;28;20541;-81
2023/09/21 05:36:42;;;;;;;3.90;3.60;;;;;;;17.00;100.00;155730.81;4937502;28;20460;-81
2023/09/21 05:39:09;;;;;;;3.50;3.20;;;;;;;17.02;100.00;155734.75;4920531;28;20972;-82
2023/09/21 05:41:35;;;;;;;4.23;3.17;;;;;;;17.04;100.00;155741.25;4953526;28;20533;-81
2023/09/21 05:44:06;;;;;;;3.33;3.03;;;;;;;17.08;100.00;155749.06;4956014;28;20482;-82
2023/09/21 05:46:32;;;;;;;3.50;3.00;;;;;;;17.10;100.00;155754.25;4939825;28;20452;-82
2023/09/21 05:48:59;;;;;;;3.83;2.87;;;;;;;17.09;100.00;155751.63;4954048;28;20950;-82
2023/09/21 05:51:26;;;;;;;3.70;3.07;;;;;;;17.10;100.00;155754.25;4937439;28;20469;-83
2023/09/21 05:53:53;;;;;;;3.10;2.77;;;;;;;17.14;100.00;155764.66;4939772;28;20568;-82
2023/09/21 05:56:20;;;;;;;4.20;3.50;;;;;;;17.17;100.00;155772.47;4938562;28;20477;-82
2023/09/21 05:58:46;;;;;;;5.80;3.57;;;;;;;17.18;100.00;155775.09;4948775;28;20562;-81
2023/09/21 06:01:14;;;;;;;4.53;3.40;;;;;;;17.21;100.00;155782.91;4946466;28;20490;-81
2023/09/21 06:03:41;;;;;;;4.13;3.57;;;;;;;17.21;100.00;155782.91;4981710;28;20741;-81
2023/09/21 06:06:10;;;;;;;4.00;3.40;;;;;;;17.24;100.00;155790.66;4971582;28;20471;-81
2023/09/21 06:08:37;;;;;;;3.77;3.10;;;;;;;17.28;100.00;155801.09;4974269;28;20470;-81
2023/09/21 06:11:04;;;;;;;5.50;3.40;;;;;;;17.27;100.00;155798.47;4962354;28;20550;-81
2023/09/21 06:13:31;;;;;;;4.43;3.53;;;;;;;17.28;100.00;155801.09;4978589;28;20472;-81
2023/09/21 06:15:57;;;;;;;4.23;3.80;;;;;;;17.27;100.00;155798.47;4970218;28;20471;-81
2023/09/21 06:18:25;;;;;;;4.20;3.80;;;;;;;17.26;100.00;155795.91;4976835;28;20469;-82
2023/09/21 06:20:54;;;;;;;4.50;3.37;;;;;;;17.24;100.00;155790.66;4982210;28;20461;-82
2023/09/21 06:23:20;;;;;;;6.67;4.50;;;;;;;17.24;100.00;155790.66;4976328;28;20449;-81
2023/09/21 06:25:48;;;;;;;5.10;4.37;;;;;;;17.23;100.00;155789.41;4947943;28;20969;-81
2023/09/21 06:28:15;;;;;;;6.03;4.90;;;;;;;17.23;100.00;155789.41;4974997;28;20458;-81
2023/09/21 06:30:42;;;;;;;5.13;3.90;;;;;;;17.22;100.00;155785.47;4971527;28;20859;-82
2023/09/21 06:33:09;;;;;;;6.17;4.37;;;;;;;17.21;100.00;155784.16;4977743;28;20467;-82
2023/09/21 06:35:37;;;;;;;5.80;4.13;;;;;;;17.22;100.00;155785.47;4974475;28;20466;-81
2023/09/21 06:38:04;;;;;;;5.30;4.13;;;;;;;17.25;100.00;155793.28;4961262;28;20446;-82
2023/09/21 06:40:32;;;;;;;4.83;4.13;;;;;;;17.32;100.00;155812.81;4969143;28;20474;-82
2023/09/21 06:42:59;;;;;;;5.13;3.53;;;;;;;17.40;100.00;155832.31;4968090;28;20474;-81
2023/09/21 06:45:31;;;;;;;4.60;4.20;;;;;;;17.45;100.00;155845.34;4963961;28;20458;-81
2023/09/21 06:47:57;;;;;;;5.43;4.50;;;;;;;17.54;100.00;155868.84;4975150;28;20457;-81
2023/09/21 06:50:24;;;;;;;4.23;3.83;;;;;;;17.61;100.00;155887.03;4970115;28;20827;-81
2023/09/21 06:52:52;;;;;;;4.57;4.07;;;;;;;17.68;100.00;155905.28;4989235;28;20541;-81
2023/09/21 06:55:18;;;;;;;5.70;3.70;;;;;;;17.77;100.00;155928.69;4964568;28;20480;-81
2023/09/21 06:57:45;;;;;;;4.27;3.87;;;;;;;17.96;100.00;155978.19;4973390;28;20550;-81
2023/09/21 07:00:14;;;;;;;3.83;3.43;;;;;;;18.10;100.00;156013.34;4975982;28;20458;-82
2023/09/21 07:02:41;;;;;;;4.37;3.90;;;;;;;18.16;99.76;156029.00;4971808;28;20482;-81
2023/09/21 07:05:11;;;;;;;4.53;3.83;;;;;;;18.19;98.13;156038.09;4946074;28;20473;-81
2023/09/21 07:07:38;;;;;;;4.00;3.43;;;;;;;18.18;99.62;156035.50;4976716;28;20458;-81
2023/09/21 07:10:10;;;;;;;4.43;3.60;;;;;;;18.10;99.58;156014.66;4973952;28;20468;-81
2023/09/21 07:12:38;;;;;;;5.23;3.57;;;;;;;18.06;99.75;156004.22;4960680;28;20537;-81
2023/09/21 07:15:07;;;;;;;4.67;4.17;;;;;;;18.04;99.62;155999.03;4972641;28;20458;-81
2023/09/21 07:17:34;;;;;;;5.67;3.60;;;;;;;18.06;98.69;156004.22;4959544;28;20462;-81
2023/09/21 07:20:01;;;;;;;5.17;3.73;;;;;;;18.16;98.50;156030.25;4959076;28;20474;-81
2023/09/21 07:22:28;;;;;;;6.07;4.10;;;;;;;18.27;98.16;156058.91;4974183;28;20486;-81
2023/09/21 07:24:54;;;;;;;3.80;3.40;;;;;;;18.35;97.83;156077.19;4960363;28;20463;-80
2023/09/21 07:27:22;;;;;;;6.27;4.20;;;;;;;18.45;96.74;156103.22;4960885;28;20458;-80
2023/09/21 07:29:49;;;;;;;5.00;3.30;;;;;;;18.56;97.19;156131.94;4976979;28;20456;-80
2023/09/21 07:32:16;;;;;;;3.57;3.20;;;;;;;18.66;95.82;156158.00;4959221;28;20455;-80
2023/09/21 07:34:42;;;;;;;5.20;3.07;;;;;;;18.77;95.94;156187.91;4974707;28;20517;-80
2023/09/21 07:37:12;;;;;;;4.13;3.47;;;;;;;18.87;96.06;156212.72;4978369;28;20453;-81
2023/09/21 07:39:39;;;;;;;5.17;3.23;;;;;;;18.97;94.96;156237.44;4960769;28;20463;-81
2023/09/21 07:42:06;;;;;;;3.87;3.43;;;;;;;19.05;94.10;156259.59;4961216;28;20469;-81
2023/09/21 07:44:34;;;;;;;3.70;3.40;;;;;;;19.15;94.89;156284.34;4959514;28;20467;-81
2023/09/21 07:47:00;;;;;;;4.00;3.60;;;;;;;19.15;93.23;156285.66;4961184;28;20995;-81
2023/09/21 07:49:27;;;;;;;8.23;4.10;;;;;;;19.23;93.44;156306.53;4971428;28;20462;-81
2023/09/21 07:51:55;;;;;;;4.50;3.60;;;;;;;19.30;93.79;156323.47;4976354;28;20508;-80
2023/09/21 07:54:21;;;;;;;7.17;3.70;;;;;;;19.42;94.38;156356.09;4973386;28;20464;-80
2023/09/21 07:56:48;;;;;;;4.43;3.47;;;;;;;19.57;93.01;156392.56;4960768;28;20493;-80
2023/09/21 07:59:15;;;;;;;3.90;3.30;;;;;;;19.72;90.66;156431.72;4961169;28;21082;-80
2023/09/21 08:01:44;;;;;;;4.80;3.57;;;;;;;19.86;90.66;156468.19;4958427;28;20516;-80
2023/09/21 08:04:11;;;;;;;3.87;3.13;;;;;;;19.95;87.64;156491.69;4973305;28;21003;-80
2023/09/21 08:06:37;;;;;;;4.90;3.30;;;;;;;20.15;87.24;156543.81;4958457;28;20462;-81
2023/09/21 08:09:05;;;;;;;5.03;3.93;;;;;;;20.53;86.62;156643.03;4958497;28;20461;-81
2023/09/21 08:11:33;;;;;;;3.20;2.77;;;;;;;20.94;85.37;156747.41;4974976;28;20483;-80
2023/09/21 08:14:00;;;;;;;3.93;3.00;;;;;;;21.30;83.09;156840.09;4968587;28;20454;-80
2023/09/21 08:16:29;;;;;;;4.70;3.40;;;;;;;21.65;80.40;156932.78;4975635;28;20561;-80
2023/09/21 08:18:58;;;;;;;4.10;3.47;;;;;;;21.87;79.07;156988.94;4976649;28;20844;-80
2023/09/21 08:21:24;;;;;;;3.63;3.27;;;;;;;21.96;76.15;157012.47;4975298;28;21257;-80
2023/09/21 08:23:51;;;;;;;3.10;2.70;;;;;;;22.01;76.48;157025.53;4974562;28;20476;-80
2023/09/21 08:26:17;;;;;;;4.70;3.17;;;;;;;22.11;76.15;157050.31;4978846;28;20820;-80
2023/09/21 08:28:45;;;;;;;3.70;3.00;;;;;;;22.20;76.11;157075.16;4958749;28;20468;-80
2023/09/21 08:31:11;;;;;;;4.10;3.00;;;;;;;22.31;77.99;157103.91;4977144;28;20464;-80
2023/09/21 08:33:38;;;;;;;4.23;3.70;;;;;;;22.32;75.03;157105.16;4975319;28;20454;-80
2023/09/21 08:36:08;;;;;;;4.23;3.27;;;;;;;22.39;74.17;157124.81;4958759;28;20896;-79
2023/09/21 08:38:34;;;;;;;3.43;3.03;;;;;;;22.45;75.22;157139.16;4942741;28;20459;-80
2023/09/21 08:41:03;;;;;;;4.40;2.87;;;;;;;22.41;74.60;157128.69;4972791;28;20458;-79
2023/09/21 08:43:30;;;;;;;3.00;2.67;;;;;;;22.45;73.92;157139.16;4975452;28;20580;-80
2023/09/21 08:45:57;;;;;;;3.50;2.87;;;;;;;22.44;71.40;157137.84;4958577;28;20557;-80
2023/09/21 08:48:26;;;;;;;4.17;2.50;;;;;;;22.48;71.40;157146.97;4973336;28;20458;-80
2023/09/21 08:50:54;;;;;;;3.87;3.03;;;;;;;22.51;72.60;157154.81;4976096;28;20453;-79
2023/09/21 08:53:23;;;;;;;3.33;2.83;;;;;;;22.57;74.51;157170.50;4974047;28;20453;-81
2023/09/21 08:55:52;;;;;;;3.57;3.27;;;;;;;22.51;75.12;157154.81;4975189;28;20870;-81
2023/09/21 08:58:23;;;;;;;3.40;3.00;;;;;;;22.52;78.23;157156.13;4973829;28;20545;-80
2023/09/21 09:00:53;;;;;;;3.40;3.10;;;;;;;22.49;76.65;157149.59;4959309;28;21244;-81
2023/09/21 09:03:20;;;;;;;4.13;3.33;;;;;;;22.58;75.41;157173.13;4957157;28;21163;-81
2023/09/21 09:05:47;;;;;;;4.10;3.37;;;;;;;22.61;76.00;157179.66;4927814;28;20462;-80
2023/09/21 09:08:13;;;;;;;3.50;3.20;;;;;;;22.72;75.25;157208.41;4955414;28;20466;-80
2023/09/21 09:10:42;;;;;;;6.87;3.10;;;;;;;22.81;75.15;157233.25;4953391;28;20470;-82
2023/09/21 09:13:09;;;;;;;3.37;3.07;;;;;;;22.91;75.07;157258.06;4970682;28;20461;-81
2023/09/21 09:15:38;;;;;;;4.10;3.00;;;;;;;23.00;75.99;157282.94;4971165;28;20909;-83
2023/09/21 09:18:06;;;;;;;5.67;3.03;;;;;;;23.04;73.90;157293.34;4942648;28;20485;-83
2023/09/21 09:20:33;;;;;;;3.90;3.60;;;;;;;23.15;72.29;157319.47;4960381;28;20484;-83
2023/09/21 09:23:01;;;;;;;3.87;3.37;;;;;;;23.20;72.73;157332.53;4974277;28;20972;-84
2023/09/21 09:25:28;;;;;;;3.70;2.87;;;;;;;23.23;72.59;157341.72;4958599;28;20461;-84
2023/09/21 09:27:56;;;;;;;2.67;2.40;;;;;;;23.30;74.75;157358.72;4941161;28;20485;-83
2023/09/21 09:30:24;;;;;;;3.57;3.07;;;;;;;23.32;74.18;157365.25;4955474;28;20809;-83
2023/09/21 09:32:54;;;;;;;3.00;2.70;;;;;;;23.35;70.40;157371.78;4959140;28;20921;-84
2023/09/21 09:35:21;;;;;;;5.17;2.87;;;;;;;23.52;68.86;157417.56;4956667;28;21004;-83
2023/09/21 09:37:48;;;;;;;4.87;3.00;;;;;;;23.65;66.73;157450.25;4970978;28;20997;-83
2023/09/21 09:40:23;;;;;;;2.87;2.67;;;;;;;23.72;65.54;157468.56;4956196;28;20457;-83
2023/09/21 09:42:51;;;;;;;5.10;2.50;;;;;;;23.83;66.26;157497.28;4959067;28;20564;-83
2023/09/21 09:45:25;;;;;;;3.57;2.50;;;;;;;23.85;68.69;157502.56;4941061;28;21005;-83
2023/09/21 09:47:54;;;;;;;2.90;2.60;;;;;;;23.83;68.68;157497.28;4953549;28;20451;-84
2023/09/21 09:50:24;;;;;;;3.37;2.50;;;;;;;23.90;66.01;157515.63;4957962;28;20461;-83
2023/09/21 09:53:02;;;;;;;3.40;2.93;;;;;;;23.99;66.43;157539.13;4959201;28;20449;-84
2023/09/21 09:55:31;;;;;;;3.00;2.70;;;;;;;24.16;63.99;157583.69;4949481;28;20449;-83
2023/09/21 09:57:59;;;;;;;3.53;2.80;;;;;;;24.18;64.94;157588.91;4961224;28;20493;-83
2023/09/21 10:00:27;;;;;;;4.20;2.70;;;;;;;24.31;63.99;157620.25;4959245;28;20572;-82
2023/09/21 10:02:55;;;;;;;2.70;2.50;;;;;;;24.38;64.55;157639.91;4935522;28;21039;-83
2023/09/21 10:05:24;;;;;;;2.83;2.17;;;;;;;24.38;62.08;157639.91;4921842;28;20472;-83
2023/09/21 10:07:51;;;;;;;3.40;2.37;;;;;;;24.36;61.44;157633.38;4953493;28;20898;-84
2023/09/21 10:10:20;;;;;;;2.67;2.30;;;;;;;24.29;62.54;157616.34;4941423;28;21247;-83
2023/09/21 10:12:49;;;;;;;3.30;2.57;;;;;;;24.27;62.25;157611.13;4924864;28;20517;-83
2023/09/21 10:15:16;;;;;;;3.60;2.53;;;;;;;24.33;63.15;157625.53;4923422;28;20865;-83
2023/09/21 10:17:48;;;;;;;3.33;3.03;;;;;;;24.28;62.49;157613.72;4926233;28;20470;-83
2023/09/21 10:20:24;;;;;;;4.00;2.53;;;;;;;24.32;62.13;157622.88;4952579;28;20965;-83
2023/09/21 10:22:52;;;;;;;2.30;2.10;;;;;;;24.31;58.95;157620.25;4944483;28;20586;-83
2023/09/21 10:25:35;;;;;;;2.40;2.20;;;;;;;24.30;58.56;157617.66;4940908;28;20510;-83
2023/09/21 10:28:22;;;;;;;3.83;2.43;;;;;;;24.22;58.40;157598.06;4934619;29;20455;-84
2023/09/21 10:30:48;;;;;;;2.20;1.90;;;;;;;24.09;58.98;157564.06;4922094;28;20457;-82
2023/09/21 10:33:16;;;;;;;4.30;2.43;;;;;;;24.05;60.13;157554.84;4923262;28;20452;-83
2023/09/21 10:35:44;;;;;;;3.20;2.37;;;;;;;24.11;59.84;157570.59;4937289;28;20515;-83
2023/09/21 10:38:14;;;;;;;3.30;2.40;;;;;;;24.26;58.70;157608.50;4937700;28;20462;-83
2023/09/21 10:40:40;;;;;;;2.83;2.33;;;;;;;24.32;59.18;157624.22;4922791;28;20459;-84
2023/09/21 10:43:41;;;;;;;2.80;2.33;;;;;;;24.39;60.09;157641.19;4956026;28;21159;-84
2023/09/21 10:46:21;;;;;;;3.47;2.60;;;;;;;24.57;60.44;157689.59;4927242;28;20530;-84
2023/09/21 10:48:49;;;;;;;2.70;2.13;;;;;;;24.67;59.21;157715.78;4938822;28;20443;-83
2023/09/21 10:51:16;;;;;;;2.67;2.47;;;;;;;24.64;59.39;157706.63;4928385;28;20577;-84
2023/09/21 10:53:43;;;;;;;2.97;1.77;;;;;;;24.65;59.66;157709.19;4922770;28;20573;-83
2023/09/21 10:56:09;;;;;;;2.33;2.13;;;;;;;24.77;58.18;157741.94;4927919;28;20463;-84
2023/09/21 10:58:36;;;;;;;3.00;2.70;;;;;;;24.74;58.45;157734.09;4954402;28;20455;-84
2023/09/21 11:01:03;;;;;;;3.00;2.70;;;;;;;24.69;58.00;157719.69;4943168;28;20504;-83
2023/09/21 11:03:30;;;;;;;3.77;2.53;;;;;;;24.69;58.65;157719.69;4973589;28;20831;-83
2023/09/21 11:05:59;;;;;;;2.30;2.10;;;;;;;24.77;59.00;157740.63;4991407;28;20486;-84
2023/09/21 11:08:25;;;;;;;2.80;2.13;;;;;;;24.81;58.30;157751.13;4973731;28;20496;-85
2023/09/21 11:11:02;;;;;;;3.20;2.47;;;;;;;24.80;59.82;157749.84;4976682;28;20892;-83
2023/09/21 11:13:30;;;;;;;2.60;2.40;;;;;;;24.69;61.20;157719.69;4976133;28;20792;-84
2023/09/21 11:15:57;;;;;;;3.50;2.30;;;;;;;24.62;60.76;157701.38;4979429;28;20479;-84
2023/09/21 11:18:24;;;;;;;5.13;2.90;;;;;;;24.56;62.58;157685.69;4965784;28;20522;-84
2023/09/21 11:20:51;;;;;;;2.90;2.57;;;;;;;24.66;59.22;157711.84;4971313;28;20449;-84
2023/09/21 11:23:20;;;;;;;3.00;2.60;;;;;;;24.69;59.06;157721.00;4976643;28;20900;-85
2023/09/21 11:25:49;;;;;;;3.00;2.67;;;;;;;24.72;59.63;157727.53;4959179;28;20453;-83